Time;durP1;ratioP1;P1;durP2;ratioP2;P2;SDS_P1;SDS_P2;PMS_P1;PMS_P2;Temp;Humidity;BMP_temperature;BMP_pressure;BME280_temperature;BME280_humidity;BME280_pressure;Samples;Min_cycle;Max_cycle;Signal;HPM_P1;HPM_P2
2023/03/17 00:02:05;;;;;;;22.70;9.80;;;;;;;1.21;91.15;101254.98;213829;1289;138801;-86
2023/03/17 00:07:07;;;;;;;22.20;10.60;;;;;;;1.24;90.98;101257.31;213448;1290;139211;-85
2023/03/17 00:12:10;;;;;;;22.50;9.20;;;;;;;1.27;90.76;101248.10;214149;1290;99358;-86
2023/03/17 00:17:12;;;;;;;23.40;8.80;;;;;;;1.30;90.60;101244.48;213498;1288;138666;-86
2023/03/17 00:22:17;;;;;;;17.80;8.80;;;;;;;1.32;90.40;101240.21;214175;1289;138777;-86
2023/03/17 00:27:18;;;;;;;23.70;9.10;;;;;;;1.33;90.85;101240.04;213338;1294;139216;-86
2023/03/17 00:32:20;;;;;;;19.00;9.20;;;;;;;1.36;90.49;101235.77;213709;1293;138595;-85
2023/03/17 00:37:20;;;;;;;23.60;10.20;;;;;;;1.42;90.34;101228.02;213231;1289;138750;-85
2023/03/17 00:42:22;;;;;;;26.50;11.80;;;;;;;1.45;90.16;101210.83;213924;1294;97948;-86
2023/03/17 00:47:22;;;;;;;25.10;11.50;;;;;;;1.44;90.54;101214.42;213317;1294;139047;-87
2023/03/17 00:52:23;;;;;;;38.50;18.40;;;;;;;1.42;90.30;101209.04;213878;1295;138805;-86
2023/03/17 00:57:23;;;;;;;30.20;14.80;;;;;;;1.42;90.39;101197.16;213552;1294;139439;-86
2023/03/17 01:02:24;;;;;;;24.30;12.20;;;;;;;1.43;90.14;101186.06;213920;1294;138830;-86
2023/03/17 01:07:27;;;;;;;28.40;13.00;;;;;;;1.43;90.08;101175.42;213365;1289;138814;-86
2023/03/17 01:12:28;;;;;;;28.60;12.30;;;;;;;1.41;90.16;101173.57;213975;1289;109402;-86
2023/03/17 01:17:28;;;;;;;27.60;13.60;;;;;;;1.38;90.26;101171.89;213220;1289;138850;-85
2023/03/17 01:22:28;;;;;;;32.40;13.90;;;;;;;1.33;90.22;101173.48;213696;1289;138717;-85
2023/03/17 01:27:33;;;;;;;28.60;14.00;;;;;;;1.33;90.20;101151.86;213232;1294;139324;-85
2023/03/17 01:32:34;;;;;;;33.50;17.40;;;;;;;1.33;90.07;101146.44;213900;1289;139387;-84
2023/03/17 01:37:35;;;;;;;31.00;15.10;;;;;;;1.32;90.14;101129.64;213307;1290;139417;-85
2023/03/17 01:42:35;;;;;;;33.10;14.60;;;;;;;1.32;90.21;101135.82;214115;1289;98004;-85
2023/03/17 01:47:36;;;;;;;33.10;15.20;;;;;;;1.33;90.50;101135.59;213482;1292;138869;-85
2023/03/17 01:52:38;;;;;;;39.00;16.60;;;;;;;1.34;90.48;101128.62;213707;1294;139402;-87
2023/03/17 01:57:55;;;;;;;34.80;17.30;;;;;;;1.36;90.36;101123.98;213248;1288;138865;-87
2023/03/17 02:02:55;;;;;;;33.30;17.10;;;;;;;1.38;90.25;101119.92;213794;1289;138897;-85
2023/03/17 02:07:56;;;;;;;32.50;16.60;;;;;;;1.38;90.29;101111.73;213347;1289;139013;-85
2023/03/17 02:13:01;;;;;;;35.50;18.50;;;;;;;1.39;89.88;101103.16;214156;1292;138714;-86
2023/03/17 02:18:02;;;;;;;35.90;18.20;;;;;;;1.39;90.12;101112.05;213730;1288;140366;-86
2023/03/17 02:23:04;;;;;;;38.20;19.80;;;;;;;1.38;89.94;101111.80;213948;1293;138502;-86
2023/03/17 02:28:13;;;;;;;44.80;20.10;;;;;;;1.37;89.74;101110.02;213586;1288;138526;-86
2023/03/17 02:33:13;;;;;;;44.80;20.20;;;;;;;1.33;89.94;101099.34;214004;1288;138698;-86
2023/03/17 02:38:14;;;;;;;40.80;18.80;;;;;;;1.32;89.91;101094.17;213577;1289;138863;-85
2023/03/17 02:43:14;;;;;;;39.70;18.70;;;;;;;1.33;89.94;101102.13;213926;1288;139747;-86
2023/03/17 02:48:14;;;;;;;43.50;20.40;;;;;;;1.35;89.90;101092.92;213765;1291;139081;-85
2023/03/17 02:53:15;;;;;;;46.10;20.00;;;;;;;1.35;89.99;101088.84;213924;1289;138542;-87
2023/03/17 02:58:16;;;;;;;37.20;17.80;;;;;;;1.36;89.74;101081.98;213414;1289;138794;-86
2023/03/17 03:03:16;;;;;;;39.20;17.70;;;;;;;1.37;89.83;101083.44;214099;1288;139063;-86
2023/03/17 03:08:17;;;;;;;40.60;18.50;;;;;;;1.38;89.61;101094.22;213417;1294;139109;-86
2023/03/17 03:13:17;;;;;;;39.60;16.70;;;;;;;1.36;89.49;101107.10;213848;1289;138782;-86
2023/03/17 03:18:17;;;;;;;34.70;16.50;;;;;;;1.33;89.40;101101.11;213581;1291;139713;-86
2023/03/17 03:23:18;;;;;;;36.30;17.60;;;;;;;1.29;89.35;101091.73;213857;1289;139489;-86
2023/03/17 03:28:18;;;;;;;36.20;15.00;;;;;;;1.23;89.39;101088.76;213580;1289;138859;-85
2023/03/17 03:33:19;;;;;;;32.00;17.30;;;;;;;1.17;89.23;101093.41;213946;1289;139541;-86
2023/03/17 03:38:20;;;;;;;36.50;15.90;;;;;;;1.10;89.45;101080.70;213472;1294;138768;-86
2023/03/17 03:43:20;;;;;;;39.10;17.60;;;;;;;1.03;89.47;101064.94;213957;1292;138652;-86
2023/03/17 03:48:21;;;;;;;68.40;34.00;;;;;;;0.97;89.61;101051.92;213468;1291;139462;-86
2023/03/17 03:53:21;;;;;;;49.90;24.40;;;;;;;0.95;89.56;101039.95;213965;1288;138595;-86
2023/03/17 03:58:22;;;;;;;35.30;18.80;;;;;;;0.93;89.64;101033.79;213460;1289;140711;-87
2023/03/17 04:03:22;;;;;;;36.80;17.50;;;;;;;0.91;89.49;101047.31;213916;1289;140332;-86
2023/03/17 04:08:23;;;;;;;33.70;15.80;;;;;;;0.91;89.49;101049.98;213534;1293;139501;-85
2023/03/17 04:13:24;;;;;;;34.10;14.40;;;;;;;0.93;89.30;101060.64;213828;1289;142481;-86
2023/03/17 04:18:25;;;;;;;38.40;16.20;;;;;;;0.92;89.52;101068.39;213538;1289;139520;-86
2023/03/17 04:23:27;;;;;;;38.30;18.60;;;;;;;0.92;89.23;101069.05;213983;1288;139341;-86
2023/03/17 04:28:27;;;;;;;33.80;15.20;;;;;;;0.90;88.96;101055.14;213536;1289;138997;-86
2023/03/17 04:33:27;;;;;;;33.10;15.10;;;;;;;0.88;89.08;101052.52;214095;1289;140013;-86
2023/03/17 04:38:28;;;;;;;50.90;25.30;;;;;;;0.86;88.91;101059.39;213520;1289;139604;-87
2023/03/17 04:43:28;;;;;;;42.20;18.40;;;;;;;0.86;88.72;101062.05;214234;1293;139937;-86
2023/03/17 04:48:29;;;;;;;34.70;16.50;;;;;;;0.82;88.60;101063.30;213821;1289;138641;-86
2023/03/17 04:53:29;;;;;;;34.30;15.10;;;;;;;0.80;88.47;101066.38;214004;1289;139078;-86
2023/03/17 04:58:29;;;;;;;38.50;16.60;;;;;;;0.80;88.50;101064.52;213384;1293;139784;-86
2023/03/17 05:03:32;;;;;;;38.20;17.40;;;;;;;0.83;88.26;101062.37;214086;1288;137619;-86
2023/03/17 05:08:32;;;;;;;42.10;18.70;;;;;;;0.87;88.31;101064.45;213377;1291;139865;-86
2023/03/17 05:13:32;;;;;;;32.00;15.40;;;;;;;0.89;88.45;101054.83;214053;1289;138986;-86
2023/03/17 05:18:33;;;;;;;36.60;16.70;;;;;;;0.91;88.24;101054.86;213578;1291;138943;-87
2023/03/17 05:23:34;;;;;;;41.30;18.60;;;;;;;0.93;88.39;101055.47;214134;1289;138936;-85
2023/03/17 05:28:35;;;;;;;42.70;17.70;;;;;;;0.95;88.08;101059.83;213696;1289;139132;-88
2023/03/17 05:33:36;;;;;;;49.30;20.40;;;;;;;0.98;87.97;101055.20;214039;1288;138814;-87
2023/03/17 05:38:36;;;;;;;37.60;17.30;;;;;;;1.01;87.75;101065.15;213584;1293;139639;-86
2023/03/17 05:43:37;;;;;;;35.40;16.50;;;;;;;1.04;87.86;101060.04;213919;1291;138752;-87
2023/03/17 05:48:37;;;;;;;38.10;15.90;;;;;;;1.07;87.72;101053.11;213569;1292;139945;-86
2023/03/17 05:53:38;;;;;;;42.20;16.20;;;;;;;1.09;87.59;101051.98;214009;1289;138858;-87
2023/03/17 05:58:38;;;;;;;35.40;17.40;;;;;;;1.12;87.14;101046.45;213487;1292;139890;-87
2023/03/17 06:03:39;;;;;;;33.10;16.40;;;;;;;1.17;87.00;101041.15;214479;1289;139428;-86
2023/03/17 06:08:40;;;;;;;39.30;16.40;;;;;;;1.23;87.01;101036.91;213624;1294;139837;-86
2023/03/17 06:13:40;;;;;;;32.00;14.90;;;;;;;1.29;86.38;101028.02;214173;1288;139608;-85
2023/03/17 06:18:41;;;;;;;34.10;15.00;;;;;;;1.35;86.16;101026.86;213690;1291;139430;-86
2023/03/17 06:23:42;;;;;;;38.80;16.10;;;;;;;1.46;85.70;101025.67;214130;1292;139000;-85
2023/03/17 06:28:42;;;;;;;34.50;17.90;;;;;;;1.54;85.43;101028.04;213671;1289;139414;-87
2023/03/17 06:33:43;;;;;;;39.40;18.80;;;;;;;1.63;85.32;101031.29;214465;1289;139161;-87
2023/03/17 06:38:44;;;;;;;42.30;17.00;;;;;;;1.76;84.91;101031.83;213800;1289;138888;-88
2023/03/17 06:43:45;;;;;;;33.70;15.40;;;;;;;1.91;84.29;101037.39;214298;1289;138848;-86
2023/03/17 06:48:45;;;;;;;33.90;15.00;;;;;;;2.07;84.28;101028.96;213677;1289;139336;-84
2023/03/17 06:53:46;;;;;;;35.90;14.30;;;;;;;2.23;83.65;101027.38;214220;1294;97944;-86
2023/03/17 06:58:47;;;;;;;38.90;19.70;;;;;;;2.37;83.08;101038.41;213716;1289;140224;-84
2023/03/17 07:03:47;;;;;;;36.20;15.50;;;;;;;2.53;82.54;101041.35;214333;1289;139314;-86
2023/03/17 07:08:49;;;;;;;39.30;17.20;;;;;;;2.67;82.07;101047.30;213817;1288;139667;-85
2023/03/17 07:13:50;;;;;;;29.90;14.40;;;;;;;2.84;81.31;101056.33;214369;1289;139894;-89
2023/03/17 07:18:51;;;;;;;29.80;13.90;;;;;;;3.03;80.61;101064.31;213941;1288;139364;-87
2023/03/17 07:23:54;;;;;;;28.80;12.60;;;;;;;3.19;80.34;101065.63;214200;1288;98574;-87
2023/03/17 07:28:54;;;;;;;30.40;13.80;;;;;;;3.35;79.91;101060.98;213694;1288;139923;-86
2023/03/17 07:33:56;;;;;;;35.80;14.20;;;;;;;3.54;79.21;101043.94;214318;1289;138731;-86
2023/03/17 07:38:56;;;;;;;31.80;13.30;;;;;;;3.76;79.09;101029.45;213792;1288;139652;-88
2023/03/17 07:43:57;;;;;;;31.70;15.30;;;;;;;3.97;78.09;101020.52;214299;1289;139153;-87
2023/03/17 07:48:57;;;;;;;38.70;14.30;;;;;;;4.15;77.44;101009.61;213703;1291;139709;-86
2023/03/17 07:54:02;;;;;;;32.40;13.30;;;;;;;4.37;76.84;100994.10;214545;1291;98068;-87
2023/03/17 07:59:07;;;;;;;36.80;13.90;;;;;;;4.55;76.53;100999.83;213806;1291;139730;-86
2023/03/17 08:04:09;;;;;;;27.60;12.10;;;;;;;4.74;75.85;100994.81;214259;1288;139113;-86
2023/03/17 08:09:10;;;;;;;27.70;11.70;;;;;;;4.93;75.44;100990.30;213779;1288;139314;-87
2023/03/17 08:14:14;;;;;;;25.00;12.00;;;;;;;5.12;74.40;100986.52;214197;1291;139282;-86
2023/03/17 08:19:15;;;;;;;32.50;13.20;;;;;;;5.31;73.93;100975.27;213732;1293;138959;-87
2023/03/17 08:24:21;;;;;;;25.60;12.30;;;;;;;5.51;73.54;100978.14;214318;1288;104462;-87
2023/03/17 08:29:22;;;;;;;25.40;12.70;;;;;;;5.70;72.93;100987.42;213923;1289;139001;-88
2023/03/17 08:34:25;;;;;;;31.10;13.20;;;;;;;5.84;72.20;100996.65;214520;1288;139584;-86
2023/03/17 08:39:26;;;;;;;26.70;11.50;;;;;;;6.06;71.68;100994.77;214206;1288;139556;-86
2023/03/17 08:44:27;;;;;;;30.60;13.00;;;;;;;6.24;70.96;100978.98;214543;1288;139988;-87
2023/03/17 08:49:35;;;;;;;24.50;10.80;;;;;;;6.38;70.23;100958.65;213716;1291;139141;-85
2023/03/17 08:54:36;;;;;;;26.10;11.10;;;;;;;6.50;69.18;100954.71;214254;1291;111370;-87
2023/03/17 08:59:39;;;;;;;22.00;9.90;;;;;;;6.57;68.02;100955.43;213597;1290;139248;-86
2023/03/17 09:04:40;;;;;;;25.50;10.50;;;;;;;6.68;67.45;100944.02;214003;1288;138978;-86
2023/03/17 09:09:41;;;;;;;22.70;10.50;;;;;;;6.80;66.91;100956.23;213730;1291;139921;-86
2023/03/17 09:14:43;;;;;;;28.90;11.30;;;;;;;6.93;66.88;100954.17;214234;1291;138927;-86
2023/03/17 09:19:43;;;;;;;24.80;11.40;;;;;;;7.10;66.15;100941.86;213561;1288;138370;-86
2023/03/17 09:24:45;;;;;;;24.20;10.90;;;;;;;7.30;65.48;100947.92;214418;1289;97915;-87
2023/03/17 09:29:46;;;;;;;23.20;10.40;;;;;;;7.45;65.08;100949.11;213841;1288;140019;-89
2023/03/17 09:34:47;;;;;;;29.40;13.80;;;;;;;7.62;64.46;100955.05;214405;1289;138477;-88
2023/03/17 09:39:48;;;;;;;28.80;11.30;;;;;;;7.78;63.55;100950.30;213700;1289;139352;-87
2023/03/17 09:45:21;;;;;;;21.50;10.40;;;;;;;7.83;62.63;100941.30;214196;1289;138900;-88
2023/03/17 09:50:30;;;;;;;23.90;11.70;;;;;;;7.85;62.40;100931.63;213626;1293;139416;-88
2023/03/17 09:55:33;;;;;;;25.50;10.40;;;;;;;7.99;63.08;100919.13;214325;1289;138336;-89
2023/03/17 10:00:34;;;;;;;25.20;10.40;;;;;;;8.42;63.37;100928.86;214214;1291;137791;-85
2023/03/17 10:05:35;;;;;;;23.40;10.30;;;;;;;8.89;61.19;100914.90;214405;1288;137959;-90
2023/03/17 10:10:58;;;;;;;26.20;11.20;;;;;;;9.26;59.75;100929.08;213981;1288;138381;-89
2023/03/17 10:16:08;;;;;;;24.30;10.40;;;;;;;9.71;58.46;100925.04;213580;1289;139692;-87
2023/03/17 10:21:13;;;;;;;21.50;9.70;;;;;;;10.25;58.15;100902.49;214167;1294;138941;-88
2023/03/17 10:26:28;;;;;;;18.70;9.60;;;;;;;10.73;56.94;100886.58;213557;1288;138569;-86
2023/03/17 10:31:33;;;;;;;19.50;10.70;;;;;;;10.95;54.43;100864.99;214274;1288;140059;-90
2023/03/17 10:36:39;;;;;;;23.20;11.60;;;;;;;11.15;53.95;100869.41;213734;1288;138351;-89
2023/03/17 10:41:57;;;;;;;26.10;10.70;;;;;;;11.23;52.22;100861.59;214032;1294;138366;-89
2023/03/17 10:46:58;;;;;;;21.00;10.90;;;;;;;11.20;51.55;100845.42;213550;1288;139360;-88
2023/03/17 10:51:59;;;;;;;22.20;11.40;;;;;;;11.29;51.99;100833.90;214148;1288;138960;-89
2023/03/17 10:57:05;;;;;;;23.50;12.10;;;;;;;11.57;51.62;100845.73;213735;1289;138892;-89
2023/03/17 11:02:28;;;;;;;24.50;12.30;;;;;;;11.62;50.60;100844.64;214078;1291;138961;-88
2023/03/17 11:07:37;;;;;;;23.10;11.90;;;;;;;11.62;50.23;100831.55;213652;1293;138340;-89
2023/03/17 11:12:39;;;;;;;21.70;11.20;;;;;;;11.73;49.43;100805.48;214371;1289;97908;-88
2023/03/17 11:17:57;;;;;;;24.50;10.70;;;;;;;11.63;48.42;100783.76;214492;1289;138763;-86
2023/03/17 11:23:21;;;;;;;24.50;12.10;;;;;;;11.74;49.31;100788.63;214041;1293;138259;-87
2023/03/17 11:28:29;;;;;;;22.00;11.40;;;;;;;11.99;49.56;100792.86;213380;1294;138866;-89
2023/03/17 11:34:05;;;;;;;21.90;11.20;;;;;;;12.06;49.44;100794.35;214227;1288;138567;-87
2023/03/17 11:39:13;;;;;;;23.80;11.60;;;;;;;12.15;49.29;100781.13;213575;1289;139017;-88
2023/03/17 11:44:19;;;;;;;24.20;12.00;;;;;;;12.18;48.62;100772.17;214048;1288;139241;-90
2023/03/17 11:49:23;;;;;;;;;;;;;;;12.23;47.96;100764.80;213494;1288;138762;-87
2023/03/17 11:54:30;;;;;;;20.20;10.80;;;;;;;12.16;49.09;100761.73;214367;1289;97969;-88
2023/03/17 11:59:48;;;;;;;23.40;13.00;;;;;;;12.26;48.67;100764.59;213637;1289;138807;-86
2023/03/17 12:04:57;;;;;;;25.30;13.30;;;;;;;12.24;48.63;100753.23;214283;1288;138273;-87
2023/03/17 12:10:14;;;;;;;28.80;15.50;;;;;;;12.10;48.21;100735.52;213505;1288;138577;-87
2023/03/17 12:15:35;;;;;;;26.80;13.80;;;;;;;11.96;49.09;100731.98;214117;1291;138496;-87
2023/03/17 12:20:52;;;;;;;27.70;15.00;;;;;;;11.88;47.88;100730.73;213620;1288;138606;-87
2023/03/17 12:26:05;;;;;;;22.50;12.00;;;;;;;11.86;47.92;100727.23;214052;1292;138506;-86
2023/03/17 12:31:21;;;;;;;37.80;17.20;;;;;;;11.85;47.83;100733.92;213842;1288;138552;-85
2023/03/17 12:36:22;;;;;;;30.80;19.70;;;;;;;11.87;47.40;100736.85;214125;1291;139985;-86
2023/03/17 12:41:47;;;;;;;27.10;15.40;;;;;;;11.81;46.50;100740.25;214062;1289;138148;-85
2023/03/17 12:47:16;;;;;;;18.60;9.90;;;;;;;11.87;46.96;100733.85;213502;1288;140021;-87
2023/03/17 12:52:54;;;;;;;23.80;11.00;;;;;;;11.88;46.80;100732.53;214122;1289;139143;-87
2023/03/17 12:58:04;;;;;;;19.40;9.70;;;;;;;11.92;47.68;100731.63;213715;1291;140067;-88
2023/03/17 13:03:10;;;;;;;21.90;9.20;;;;;;;11.99;46.89;100728.16;214015;1288;138793;-85
2023/03/17 13:08:19;;;;;;;20.80;10.00;;;;;;;12.00;46.86;100722.64;213578;1288;138906;-87
2023/03/17 13:13:44;;;;;;;19.20;9.90;;;;;;;12.03;46.57;100721.81;214012;1288;138847;-88
2023/03/17 13:18:47;;;;;;;17.00;8.70;;;;;;;12.06;46.75;100727.67;213485;1291;138335;-87
2023/03/17 13:24:14;;;;;;;19.40;10.10;;;;;;;12.13;46.41;100713.47;213979;1291;137769;-85
2023/03/17 13:29:31;;;;;;;24.10;10.30;;;;;;;12.10;46.51;100711.31;213503;1288;138674;-87
2023/03/17 13:35:06;;;;;;;17.10;8.50;;;;;;;12.07;46.12;100702.30;213988;1291;138420;-88
2023/03/17 13:41:09;;;;;;;16.30;7.60;;;;;;;12.03;45.83;100692.49;213491;1289;138822;-87
2023/03/17 13:45:51;;;;;;;14.80;6.80;;;;;;;11.97;45.35;100695.48;214092;1293;138337;-88
2023/03/17 13:51:09;;;;;;;15.20;6.70;;;;;;;11.92;45.38;100688.20;213644;1294;138266;-88
2023/03/17 13:56:52;;;;;;;19.40;8.00;;;;;;;11.84;45.12;100685.06;214023;1288;139430;-87
2023/03/17 14:01:58;;;;;;;16.00;7.10;;;;;;;11.77;44.91;100685.85;213653;1289;138629;-88
2023/03/17 14:07:08;;;;;;;16.70;6.80;;;;;;;11.71;45.73;100688.30;213736;1290;138620;-86
2023/03/17 14:12:16;;;;;;;21.20;7.50;;;;;;;11.75;46.71;100690.07;214307;1291;111252;-88
2023/03/17 14:17:42;;;;;;;17.10;7.20;;;;;;;11.75;46.24;100674.56;213821;1289;139776;-87
2023/03/17 14:22:46;;;;;;;14.60;6.40;;;;;;;11.63;46.12;100672.61;214430;1290;138060;-89
2023/03/17 14:27:51;;;;;;;15.60;6.20;;;;;;;11.50;46.03;100672.06;213857;1292;138595;-91
2023/03/17 14:33:21;;;;;;;17.40;6.60;;;;;;;11.39;45.94;100669.00;214217;1293;138482;-89
2023/03/17 14:38:26;;;;;;;19.10;7.30;;;;;;;11.30;46.14;100662.23;213792;1293;139029;-86
2023/03/17 14:43:27;;;;;;;14.30;6.40;;;;;;;11.22;46.39;100655.43;214057;1290;139168;-89
2023/03/17 14:48:33;;;;;;;14.80;6.60;;;;;;;11.14;46.51;100647.48;213823;1292;138836;-89
2023/03/17 14:53:38;;;;;;;15.30;7.60;;;;;;;11.08;47.14;100648.65;214106;1294;138205;-89
2023/03/17 14:58:46;;;;;;;22.60;12.80;;;;;;;11.03;46.94;100638.66;213366;1294;138837;-88
2023/03/17 15:04:06;;;;;;;24.80;14.00;;;;;;;10.98;47.13;100624.91;214198;1289;140167;-90
2023/03/17 15:09:24;;;;;;;23.30;9.90;;;;;;;10.88;46.91;100623.29;213485;1289;139452;-88
2023/03/17 15:14:28;;;;;;;29.00;13.00;;;;;;;10.77;47.29;100625.66;214262;1289;138972;-87
2023/03/17 15:19:39;;;;;;;18.80;8.40;;;;;;;10.71;47.63;100631.31;213647;1294;138768;-88
2023/03/17 15:24:42;;;;;;;27.80;10.60;;;;;;;10.61;48.11;100620.55;214370;1289;97937;-88
2023/03/17 15:29:44;;;;;;;26.90;12.40;;;;;;;10.48;48.23;100616.05;213400;1292;138049;-88
2023/03/17 15:34:46;;;;;;;39.00;16.20;;;;;;;10.40;48.64;100621.83;214180;1289;138171;-86
2023/03/17 15:39:48;;;;;;;24.90;13.00;;;;;;;10.35;49.15;100631.82;213700;1288;140425;-88
2023/03/17 15:44:48;;;;;;;21.10;10.70;;;;;;;10.28;49.09;100631.71;214279;1291;138411;-88
2023/03/17 15:49:50;;;;;;;26.20;12.30;;;;;;;10.23;49.52;100627.55;213750;1289;138543;-89
2023/03/17 15:54:52;;;;;;;22.50;11.50;;;;;;;10.20;49.95;100628.59;214128;1292;97946;-88
2023/03/17 15:59:53;;;;;;;78.00;45.20;;;;;;;10.15;49.86;100621.52;213542;1291;138744;-89
2023/03/17 16:04:53;;;;;;;48.90;26.90;;;;;;;10.09;50.41;100613.49;214276;1289;139541;-89
2023/03/17 16:09:54;;;;;;;57.20;25.20;;;;;;;10.05;50.89;100616.72;213165;1294;290292;-86
2023/03/17 16:14:58;;;;;;;24.20;10.50;;;;;;;9.99;51.47;100609.30;213974;1289;139109;-88
2023/03/17 16:19:59;;;;;;;26.20;14.40;;;;;;;9.89;51.27;100605.60;213260;1293;138803;-88
2023/03/17 16:25:00;;;;;;;20.50;9.50;;;;;;;9.80;51.60;100610.16;213846;1294;98065;-87
2023/03/17 16:30:01;;;;;;;18.50;8.40;;;;;;;9.71;52.18;100603.94;213370;1294;139026;-88
2023/03/17 16:35:02;;;;;;;17.20;8.90;;;;;;;9.62;53.01;100597.35;214108;1291;137620;-89
2023/03/17 16:40:03;;;;;;;18.70;7.90;;;;;;;9.53;53.35;100596.11;213543;1292;139359;-88
2023/03/17 16:45:09;;;;;;;16.10;8.60;;;;;;;9.46;53.45;100600.69;213791;1294;138375;-88
2023/03/17 16:50:15;;;;;;;18.50;9.20;;;;;;;9.40;53.41;100608.58;213475;1289;138897;-89
2023/03/17 16:55:16;;;;;;;17.50;8.70;;;;;;;9.30;52.90;100605.80;214022;1292;137800;-90
2023/03/17 17:00:21;;;;;;;18.70;8.30;;;;;;;9.21;53.17;100602.48;213533;1289;138536;-89
2023/03/17 17:05:26;;;;;;;18.60;8.60;;;;;;;9.13;53.08;100603.26;213903;1291;138176;-89
2023/03/17 17:10:29;;;;;;;14.70;8.20;;;;;;;9.01;53.38;100600.45;213418;1289;138179;-88
2023/03/17 17:15:30;;;;;;;17.70;7.40;;;;;;;8.91;53.97;100601.56;213772;1294;138872;-89
2023/03/17 17:20:39;;;;;;;16.90;7.40;;;;;;;8.82;54.52;100604.29;213463;1295;138275;-89
2023/03/17 17:25:40;;;;;;;18.80;7.60;;;;;;;8.71;54.53;100606.08;214166;1289;138972;-89
2023/03/17 17:30:43;;;;;;;28.80;19.90;;;;;;;8.64;55.10;100595.27;213566;1289;138028;-89
2023/03/17 17:35:45;;;;;;;20.90;11.70;;;;;;;8.55;55.52;100591.64;213844;1292;139802;-89
2023/03/17 17:40:47;;;;;;;17.30;9.10;;;;;;;8.47;56.01;100591.93;213392;1294;141237;-90
2023/03/17 17:45:48;;;;;;;21.00;10.30;;;;;;;8.39;56.34;100595.97;213936;1294;138438;-91
2023/03/17 17:50:49;;;;;;;21.70;10.60;;;;;;;8.30;56.82;100586.00;213530;1291;138994;-90
2023/03/17 17:55:50;;;;;;;21.40;10.10;;;;;;;8.22;57.28;100586.67;214152;1289;137971;-88
2023/03/17 18:00:54;;;;;;;21.20;10.20;;;;;;;8.15;57.33;100586.77;213855;1290;138709;-87
2023/03/17 18:05:55;;;;;;;21.90;10.00;;;;;;;8.09;57.36;100583.43;214461;1292;138053;-89
2023/03/17 18:10:56;;;;;;;23.00;12.20;;;;;;;8.00;57.82;100585.56;213716;1295;139020;-88
2023/03/17 18:15:57;;;;;;;27.70;12.40;;;;;;;7.93;58.16;100582.50;214034;1289;138601;-86
2023/03/17 18:20:58;;;;;;;27.30;11.80;;;;;;;7.87;57.94;100585.87;213592;1295;138215;-86
2023/03/17 18:26:00;;;;;;;29.10;13.30;;;;;;;7.80;58.17;100584.54;213359;1294;138465;-88
2023/03/17 18:31:08;;;;;;;26.40;12.40;;;;;;;7.73;58.23;100583.56;213758;1301;138133;-84
2023/03/17 18:36:10;;;;;;;23.10;10.80;;;;;;;7.66;58.13;100583.72;213657;1290;137870;-88
2023/03/17 18:41:11;;;;;;;25.10;13.00;;;;;;;7.59;58.48;100579.71;214106;1289;137778;-86
2023/03/17 18:46:13;;;;;;;24.70;11.00;;;;;;;7.52;58.12;100574.45;213665;1289;138369;-87
2023/03/17 18:51:13;;;;;;;26.00;12.10;;;;;;;7.47;58.46;100569.05;214003;1292;138423;-86
2023/03/17 18:56:13;;;;;;;25.50;12.30;;;;;;;7.42;58.65;100566.98;213461;1292;138853;-86
2023/03/17 19:01:14;;;;;;;27.20;11.60;;;;;;;7.36;58.41;100564.93;214026;1292;138065;-87
2023/03/17 19:06:20;;;;;;;27.40;13.50;;;;;;;7.30;58.67;100567.52;213518;1289;138032;-88
2023/03/17 19:11:21;;;;;;;26.40;12.80;;;;;;;7.28;58.40;100568.23;213671;1292;137813;-88
2023/03/17 19:16:27;;;;;;;24.20;11.60;;;;;;;7.21;58.98;100563.70;213336;1295;138434;-88
2023/03/17 19:21:28;;;;;;;26.40;13.20;;;;;;;7.15;58.82;100571.11;213874;1288;138015;-86
2023/03/17 19:26:30;;;;;;;23.10;12.50;;;;;;;7.09;59.40;100572.43;213304;1288;138215;-88
2023/03/17 19:31:30;;;;;;;24.80;13.00;;;;;;;7.03;59.05;100567.81;213914;1289;138507;-88
2023/03/17 19:36:34;;;;;;;28.70;14.10;;;;;;;7.00;58.88;100564.20;213612;1292;142614;-88
2023/03/17 19:41:36;;;;;;;60.40;33.40;;;;;;;6.94;58.86;100553.42;214125;1289;137988;-87
2023/03/17 19:46:37;;;;;;;32.90;16.90;;;;;;;6.89;59.08;100547.73;213381;1293;138163;-87
2023/03/17 19:51:37;;;;;;;29.00;14.40;;;;;;;6.82;59.42;100544.86;214120;1295;138027;-87
2023/03/17 19:56:38;;;;;;;32.90;14.20;;;;;;;6.76;59.35;100539.56;213354;1291;139017;-87
2023/03/17 20:01:38;;;;;;;31.20;14.50;;;;;;;6.69;59.66;100531.86;214289;1291;138647;-87
2023/03/17 20:06:40;;;;;;;28.70;14.30;;;;;;;6.63;59.89;100536.29;213528;1289;138771;-85
2023/03/17 20:11:41;;;;;;;30.60;14.60;;;;;;;6.56;60.17;100526.42;213869;1289;137892;-88
2023/03/17 20:16:41;;;;;;;31.00;15.10;;;;;;;6.50;60.13;100516.93;213538;1289;138271;-87
2023/03/17 20:21:43;;;;;;;31.10;15.20;;;;;;;6.44;60.49;100519.44;214758;1295;138189;-87
2023/03/17 20:26:44;;;;;;;34.00;14.20;;;;;;;6.39;60.70;100516.76;213713;1291;139551;-86
2023/03/17 20:31:45;;;;;;;29.80;13.90;;;;;;;6.33;60.77;100515.35;214260;1289;139051;-88
2023/03/17 20:36:47;;;;;;;29.70;14.50;;;;;;;6.29;60.78;100518.98;214117;1289;138862;-89
2023/03/17 20:41:50;;;;;;;34.80;16.00;;;;;;;6.23;61.25;100522.69;214575;1289;139083;-88
2023/03/17 20:46:52;;;;;;;29.30;14.00;;;;;;;6.18;61.40;100521.94;214115;1290;137998;-87
2023/03/17 20:51:52;;;;;;;36.80;15.10;;;;;;;6.13;61.66;100518.03;214104;1289;138156;-90
2023/03/17 20:56:55;;;;;;;32.10;16.70;;;;;;;6.07;61.93;100513.46;213766;1290;139115;-88
2023/03/17 21:01:57;;;;;;;35.90;18.20;;;;;;;6.02;62.02;100513.54;214083;1294;138410;-89
2023/03/17 21:06:58;;;;;;;36.10;18.30;;;;;;;5.97;62.23;100509.66;214132;1289;138349;-88
2023/03/17 21:11:59;;;;;;;37.90;17.10;;;;;;;5.89;62.70;100510.73;214417;1293;138979;-88
2023/03/17 21:17:00;;;;;;;43.50;19.50;;;;;;;5.82;62.88;100502.09;213641;1288;138480;-90
2023/03/17 21:22:01;;;;;;;45.40;21.20;;;;;;;5.75;63.41;100496.77;214435;1288;138282;-89
2023/03/17 21:27:04;;;;;;;42.80;20.00;;;;;;;5.69;63.67;100497.59;213791;1294;138165;-88
2023/03/17 21:32:07;;;;;;;41.10;18.40;;;;;;;5.63;64.02;100494.66;214156;1288;138275;-89
2023/03/17 21:37:07;;;;;;;42.10;19.70;;;;;;;5.58;64.42;100492.48;213606;1294;138217;-88
2023/03/17 21:42:09;;;;;;;41.70;19.90;;;;;;;5.49;64.77;100494.46;214239;1288;98696;-87
2023/03/17 21:47:10;;;;;;;46.80;22.10;;;;;;;5.43;65.07;100486.08;213817;1289;138840;-89
2023/03/17 21:52:11;;;;;;;46.70;20.80;;;;;;;5.38;65.45;100483.73;214071;1293;138565;-88
2023/03/17 21:57:12;;;;;;;44.80;21.90;;;;;;;5.33;65.67;100476.46;215088;1288;138507;-89
2023/03/17 22:02:15;;;;;;;42.50;19.90;;;;;;;5.26;66.07;100475.16;214762;1291;139884;-90
2023/03/17 22:07:16;;;;;;;41.00;20.10;;;;;;;5.19;66.46;100472.88;214101;1289;138644;-90
2023/03/17 22:12:18;;;;;;;41.80;20.40;;;;;;;5.13;66.68;100473.46;214866;1291;97989;-92
2023/03/17 22:17:18;;;;;;;41.30;20.60;;;;;;;5.10;66.63;100472.34;213782;1292;138086;-89
2023/03/17 22:22:20;;;;;;;39.10;19.30;;;;;;;5.06;67.05;100476.34;214024;1288;138155;-90
2023/03/17 22:27:21;;;;;;;43.80;18.90;;;;;;;5.02;67.04;100480.88;213563;1291;138862;-88
2023/03/17 22:32:21;;;;;;;36.50;18.50;;;;;;;5.00;67.06;100475.60;214000;1289;137974;-89
2023/03/17 22:37:23;;;;;;;40.30;18.00;;;;;;;4.97;67.49;100477.98;213509;1289;139317;-89
2023/03/17 22:42:24;;;;;;;36.40;17.30;;;;;;;4.91;67.62;100483.63;214056;1292;99262;-90
2023/03/17 22:47:24;;;;;;;36.10;17.10;;;;;;;4.84;67.95;100477.77;213545;1291;139468;-90